createdAt,value
2022-12-22T00:00:12.100Z,26.24
2022-12-22T00:01:29.614Z,27.27
2022-12-22T00:02:41.748Z,26.32
2022-12-22T00:03:53.665Z,25.10
2022-12-22T00:05:05.558Z,27.04
2022-12-22T00:06:17.561Z,27.74
2022-12-22T00:07:29.554Z,28.30
2022-12-22T00:08:29.582Z,28.86
2022-12-22T00:09:28.366Z,27.65
2022-12-22T00:10:28.590Z,27.63
2022-12-22T00:11:27.319Z,27.84
2022-12-22T00:12:27.558Z,27.59
2022-12-22T00:13:26.074Z,25.98
2022-12-22T00:14:24.541Z,27.05
2022-12-22T00:15:24.398Z,28.94
2022-12-22T00:16:23.603Z,28.95
2022-12-22T00:17:24.944Z,26.65
2022-12-22T00:18:23.534Z,27.40
2022-12-22T00:19:22.065Z,28.99
2022-12-22T00:20:20.547Z,31.01
2022-12-22T00:21:19.003Z,34.70
2022-12-22T00:22:17.513Z,35.53
2022-12-22T00:23:16.067Z,32.44
2022-12-22T00:24:15.522Z,31.56
2022-12-22T00:25:14.178Z,26.60
2022-12-22T00:26:13.539Z,25.67
2022-12-22T00:27:12.253Z,27.45
2022-12-22T00:28:11.517Z,26.25
2022-12-22T00:29:10.107Z,23.60
2022-12-22T00:30:10.544Z,22.99
2022-12-22T00:31:09.990Z,24.65
2022-12-22T00:32:08.539Z,24.36
2022-12-22T00:33:07.464Z,23.33
2022-12-22T00:34:06.512Z,22.96
2022-12-22T00:35:07.345Z,22.80
2022-12-22T00:36:06.498Z,22.38
2022-12-22T00:37:18.749Z,21.81
2022-12-22T00:38:30.510Z,23.38
2022-12-22T00:39:45.499Z,22.95
2022-12-22T00:41:01.512Z,22.59
2022-12-22T00:42:14.503Z,20.75
2022-12-22T00:43:13.542Z,21.94
2022-12-22T00:44:12.228Z,23.50
2022-12-22T00:45:11.537Z,23.79
2022-12-22T00:46:10.323Z,22.98
2022-12-22T00:47:10.506Z,22.74
2022-12-22T00:48:08.971Z,23.02
2022-12-22T00:49:09.537Z,22.39
2022-12-22T00:50:11.215Z,22.17
2022-12-22T00:51:10.556Z,21.92
2022-12-22T00:52:10.503Z,23.25
2022-12-22T00:53:09.500Z,22.57
2022-12-22T00:54:08.480Z,23.29
2022-12-22T00:55:07.505Z,23.98
2022-12-22T00:56:06.077Z,24.29
2022-12-22T00:57:05.516Z,24.63
2022-12-22T00:58:05.307Z,25.42
2022-12-22T00:59:04.493Z,25.39
2022-12-22T01:00:03.034Z,26.15
2022-12-22T01:01:02.538Z,26.74
2022-12-22T01:02:01.371Z,27.42
2022-12-22T01:03:00.631Z,26.99
2022-12-22T01:03:59.030Z,25.77
2022-12-22T01:04:57.502Z,25.01
2022-12-22T01:05:56.093Z,24.92
2022-12-22T01:06:57.499Z,24.29
2022-12-22T01:07:56.104Z,24.30
2022-12-22T01:08:55.466Z,25.10
2022-12-22T01:09:53.957Z,25.19
2022-12-22T01:10:52.478Z,24.15
2022-12-22T01:11:52.220Z,23.88
2022-12-22T01:12:52.529Z,23.83
2022-12-22T01:13:52.213Z,23.83
2022-12-22T01:14:51.491Z,24.23
2022-12-22T01:15:51.950Z,22.94
2022-12-22T01:16:50.500Z,23.81
2022-12-22T01:17:48.945Z,23.67
2022-12-22T01:18:47.529Z,24.00
2022-12-22T01:19:45.931Z,23.71
2022-12-22T01:20:44.463Z,23.25
2022-12-22T01:21:43.849Z,23.71
2022-12-22T01:22:46.499Z,24.15
2022-12-22T01:23:45.051Z,23.52
2022-12-22T01:24:44.488Z,23.10
2022-12-22T01:25:45.463Z,24.04
2022-12-22T01:26:45.448Z,23.29
2022-12-22T01:27:44.230Z,23.50
2022-12-22T01:28:43.461Z,22.98
2022-12-22T01:29:41.891Z,23.01
2022-12-22T01:30:40.532Z,24.11
2022-12-22T01:31:44.224Z,24.49
2022-12-22T01:32:50.435Z,23.60
2022-12-22T01:33:43.181Z,23.45
2022-12-22T01:34:49.444Z,23.09
2022-12-22T01:35:54.507Z,23.94
2022-12-22T01:37:06.519Z,24.63
2022-12-22T01:38:18.454Z,22.96
2022-12-22T01:39:30.452Z,22.08
2022-12-22T01:40:50.443Z,21.42
2022-12-22T01:41:49.507Z,20.30
2022-12-22T01:42:48.237Z,19.79
2022-12-22T01:43:51.456Z,20.83
2022-12-22T01:44:50.211Z,19.84
2022-12-22T01:45:54.448Z,19.14
2022-12-22T01:47:18.438Z,19.05
2022-12-22T01:48:30.438Z,19.24
2022-12-22T01:49:51.448Z,19.06
2022-12-22T01:51:06.425Z,19.80
2022-12-22T01:52:18.457Z,19.61
2022-12-22T01:53:30.428Z,18.39
2022-12-22T01:54:44.425Z,18.00
2022-12-22T01:55:58.442Z,19.17
2022-12-22T01:57:11.429Z,19.94
2022-12-22T01:58:10.446Z,18.77
2022-12-22T01:59:15.056Z,18.56
2022-12-22T02:00:14.412Z,20.15
2022-12-22T02:01:12.926Z,18.66
2022-12-22T02:02:11.642Z,18.25
2022-12-22T02:03:10.393Z,17.77
2022-12-22T02:04:09.438Z,17.74
2022-12-22T02:05:11.064Z,19.81
2022-12-22T02:06:59.823Z,21.76
2022-12-22T02:08:32.841Z,21.16
2022-12-22T02:10:08.466Z,20.34
2022-12-22T02:11:41.326Z,18.64
2022-12-22T02:13:00.417Z,18.69
2022-12-22T02:14:49.808Z,17.55
2022-12-22T02:16:11.495Z,17.36
2022-12-22T02:18:06.843Z,16.66
2022-12-22T02:19:19.391Z,18.51
2022-12-22T02:21:00.786Z,18.08
2022-12-22T02:22:33.433Z,17.44
2022-12-22T02:24:15.126Z,17.94
2022-12-22T02:25:30.415Z,18.25
2022-12-22T02:26:53.030Z,17.31
2022-12-22T02:27:53.438Z,18.48
2022-12-22T02:28:51.902Z,18.04
2022-12-22T02:30:00.420Z,18.15
2022-12-22T02:31:00.344Z,17.39
2022-12-22T02:32:02.388Z,18.25
2022-12-22T02:33:10.448Z,17.98
2022-12-22T02:34:22.405Z,17.54
2022-12-22T02:35:46.387Z,17.19
2022-12-22T02:37:24.385Z,18.41
2022-12-22T02:39:12.390Z,17.51
2022-12-22T02:40:23.072Z,18.06
2022-12-22T02:42:09.398Z,18.15
2022-12-22T02:43:53.019Z,17.00
2022-12-22T02:45:09.416Z,18.15
2022-12-22T02:46:21.377Z,18.56
2022-12-22T02:48:03.390Z,20.77
2022-12-22T02:49:26.034Z,29.41
2022-12-22T02:50:56.379Z,36.21
2022-12-22T02:51:59.911Z,33.53
2022-12-22T02:53:01.372Z,31.88
2022-12-22T02:53:59.975Z,30.95
2022-12-22T02:55:00.390Z,30.15
2022-12-22T02:56:06.399Z,27.95
2022-12-22T02:56:59.968Z,25.30
2022-12-22T02:58:06.374Z,24.58
2022-12-22T02:58:58.772Z,24.86
2022-12-22T03:00:05.426Z,25.15
2022-12-22T03:00:58.491Z,24.79
2022-12-22T03:01:57.484Z,25.61
2022-12-22T03:02:50.393Z,26.95
2022-12-22T03:03:43.215Z,25.49
2022-12-22T03:04:42.358Z,22.59
2022-12-22T03:05:34.909Z,21.76
2022-12-22T03:06:27.545Z,19.45
2022-12-22T03:07:26.420Z,19.26
2022-12-22T03:08:18.817Z,18.08
2022-12-22T03:09:11.712Z,18.00
2022-12-22T03:10:10.352Z,17.56
2022-12-22T03:11:03.145Z,16.70
2022-12-22T03:11:55.735Z,17.02
2022-12-22T03:12:54.386Z,16.36
2022-12-22T03:13:47.223Z,16.65
2022-12-22T03:14:39.901Z,16.90
2022-12-22T03:15:39.378Z,15.64
2022-12-22T03:16:32.037Z,16.49
2022-12-22T03:17:24.592Z,16.40
2022-12-22T03:18:32.332Z,15.02
2022-12-22T03:19:24.969Z,15.90
2022-12-22T03:20:17.447Z,16.65
2022-12-22T03:21:17.337Z,15.91
2022-12-22T03:22:09.830Z,15.74
2022-12-22T03:23:02.666Z,15.73
2022-12-22T03:24:01.349Z,15.31
2022-12-22T03:24:54.038Z,16.88
2022-12-22T03:25:46.764Z,17.30
2022-12-22T03:26:27.360Z,15.48
2022-12-22T03:27:01.393Z,14.60
2022-12-22T03:27:35.083Z,15.77
2022-12-22T03:28:16.348Z,15.19
2022-12-22T03:28:50.443Z,16.02
2022-12-22T03:29:30.368Z,16.21
2022-12-22T03:30:11.578Z,16.36
2022-12-22T03:30:51.322Z,16.70
2022-12-22T03:31:32.483Z,14.44
2022-12-22T03:32:12.340Z,15.35
2022-12-22T03:32:52.392Z,15.80
2022-12-22T03:33:32.355Z,15.23
2022-12-22T03:34:13.561Z,14.95
2022-12-22T03:34:53.352Z,15.41
2022-12-22T03:35:34.412Z,15.14
2022-12-22T03:36:16.317Z,14.89
2022-12-22T03:36:56.385Z,14.89
2022-12-22T03:37:36.332Z,15.30
2022-12-22T03:38:16.524Z,16.45
2022-12-22T03:38:56.321Z,16.94
2022-12-22T03:39:36.406Z,16.08
2022-12-22T03:40:17.346Z,15.46
2022-12-22T03:40:58.386Z,14.34
2022-12-22T03:41:57.339Z,14.63
2022-12-22T03:42:55.883Z,14.69
2022-12-22T03:43:55.328Z,14.04
2022-12-22T03:44:53.891Z,14.71
2022-12-22T03:45:53.400Z,14.38
2022-12-22T03:46:34.422Z,15.02
2022-12-22T03:47:14.356Z,14.51
2022-12-22T03:47:54.367Z,14.48
2022-12-22T03:48:34.342Z,16.41
2022-12-22T03:49:14.396Z,15.44
2022-12-22T03:49:54.309Z,15.39
2022-12-22T03:50:34.379Z,15.57
2022-12-22T03:51:16.301Z,15.09
2022-12-22T03:51:57.395Z,15.96
2022-12-22T03:52:37.318Z,14.00
2022-12-22T03:53:17.366Z,13.38
2022-12-22T03:53:57.302Z,13.65
2022-12-22T03:54:37.364Z,14.43
2022-12-22T03:55:24.307Z,15.50
2022-12-22T03:56:01.284Z,15.04
2022-12-22T03:56:46.315Z,14.74
2022-12-22T03:57:26.403Z,14.66
2022-12-22T03:58:06.298Z,14.98
2022-12-22T03:58:46.536Z,15.65
2022-12-22T03:59:27.323Z,14.86
2022-12-22T04:00:07.378Z,14.69
2022-12-22T04:00:48.329Z,14.96
2022-12-22T04:01:28.461Z,14.93
2022-12-22T04:02:08.428Z,14.45
2022-12-22T04:02:48.535Z,15.15
2022-12-22T04:03:28.322Z,15.41
2022-12-22T04:04:08.365Z,17.70
2022-12-22T04:04:48.301Z,18.19
2022-12-22T04:05:28.366Z,14.04
2022-12-22T04:06:09.332Z,16.15
2022-12-22T04:06:50.403Z,17.89
2022-12-22T04:07:30.353Z,15.46
2022-12-22T04:08:11.384Z,14.21
2022-12-22T04:08:52.366Z,13.69
2022-12-22T04:09:32.384Z,14.32
2022-12-22T04:10:32.323Z,14.68
2022-12-22T04:11:31.116Z,14.64
2022-12-22T04:12:31.316Z,13.82
2022-12-22T04:13:11.345Z,13.24
2022-12-22T04:13:51.293Z,13.81
2022-12-22T04:14:34.411Z,13.41
2022-12-22T04:15:17.278Z,12.94
2022-12-22T04:15:57.410Z,13.09
2022-12-22T04:16:38.303Z,14.65
2022-12-22T04:17:18.397Z,14.49
2022-12-22T04:17:59.317Z,13.14
2022-12-22T04:18:39.380Z,11.96
2022-12-22T04:19:19.298Z,12.19
2022-12-22T04:19:59.340Z,13.14
2022-12-22T04:20:40.265Z,12.85
2022-12-22T04:21:20.338Z,13.54
2022-12-22T04:22:01.326Z,12.63
2022-12-22T04:22:41.345Z,13.32
2022-12-22T04:23:21.291Z,12.70
2022-12-22T04:24:01.316Z,14.43
2022-12-22T04:24:42.269Z,15.15
2022-12-22T04:25:22.383Z,14.52
2022-12-22T04:26:02.275Z,14.15
2022-12-22T04:26:42.439Z,14.38
2022-12-22T04:27:22.267Z,15.81
2022-12-22T04:28:02.333Z,17.52
2022-12-22T04:28:42.319Z,17.49
2022-12-22T04:29:23.446Z,16.75
2022-12-22T04:30:03.248Z,17.38
2022-12-22T04:30:43.342Z,17.50
2022-12-22T04:31:23.316Z,17.38
2022-12-22T04:32:03.457Z,16.67
2022-12-22T04:32:44.278Z,18.55
2022-12-22T04:33:24.358Z,18.11
2022-12-22T04:34:05.282Z,16.60
2022-12-22T04:34:45.349Z,15.68
2022-12-22T04:35:25.258Z,15.64
2022-12-22T04:36:05.306Z,15.71
2022-12-22T04:36:45.303Z,14.80
2022-12-22T04:37:26.424Z,15.09
2022-12-22T04:38:06.304Z,15.35
2022-12-22T04:38:46.376Z,15.73
2022-12-22T04:39:27.313Z,17.54
2022-12-22T04:40:08.745Z,17.34
2022-12-22T04:40:49.256Z,15.99
2022-12-22T04:41:29.353Z,15.55
2022-12-22T04:42:09.243Z,16.02
2022-12-22T04:42:49.303Z,14.99
2022-12-22T04:43:30.247Z,14.89
2022-12-22T04:44:10.447Z,15.64
2022-12-22T04:44:50.261Z,14.99
2022-12-22T04:45:30.376Z,14.81
2022-12-22T04:46:11.326Z,13.93
2022-12-22T04:46:51.322Z,15.13
2022-12-22T04:47:31.251Z,15.10
2022-12-22T04:48:12.363Z,15.84
2022-12-22T04:48:57.883Z,15.31
2022-12-22T04:49:40.351Z,15.63
2022-12-22T04:50:20.345Z,14.71
2022-12-22T04:51:03.360Z,14.59
2022-12-22T04:51:43.240Z,14.11
2022-12-22T04:52:23.327Z,14.59
2022-12-22T04:53:04.235Z,14.80
2022-12-22T04:53:38.035Z,14.45
2022-12-22T04:54:25.255Z,15.05
2022-12-22T04:54:59.003Z,15.70
2022-12-22T04:55:39.246Z,16.29
2022-12-22T04:56:15.385Z,15.54
2022-12-22T04:56:50.533Z,15.10
2022-12-22T04:57:34.334Z,15.06
2022-12-22T04:58:12.353Z,15.39
2022-12-22T04:58:46.071Z,16.60
2022-12-22T04:59:27.254Z,17.99
2022-12-22T05:00:01.375Z,18.67
2022-12-22T05:00:34.975Z,19.65
2022-12-22T05:01:19.317Z,22.74
2022-12-22T05:01:53.341Z,26.71
2022-12-22T05:02:27.014Z,28.59
2022-12-22T05:03:07.327Z,28.83
2022-12-22T05:03:41.476Z,29.96
2022-12-22T05:04:18.762Z,29.75
2022-12-22T05:05:03.239Z,30.83
2022-12-22T05:05:37.351Z,34.49
2022-12-22T05:06:11.327Z,37.35
2022-12-22T05:06:52.251Z,36.90
2022-12-22T05:07:26.283Z,39.45
2022-12-22T05:08:00.188Z,41.40
2022-12-22T05:08:41.242Z,40.36
2022-12-22T05:09:17.574Z,39.56
2022-12-22T05:09:52.001Z,34.63
2022-12-22T05:10:33.238Z,32.33
2022-12-22T05:11:07.307Z,32.96
2022-12-22T05:11:41.977Z,32.64
2022-12-22T05:12:41.242Z,31.52
2022-12-22T05:13:15.282Z,27.33
2022-12-22T05:13:48.923Z,25.11
2022-12-22T05:14:29.205Z,24.48
2022-12-22T05:15:03.325Z,21.83
2022-12-22T05:15:37.455Z,21.13
2022-12-22T05:16:23.239Z,17.49
2022-12-22T05:16:57.467Z,16.01
2022-12-22T05:17:31.432Z,16.99
2022-12-22T05:18:12.243Z,15.16
2022-12-22T05:18:47.680Z,15.06
2022-12-22T05:19:24.976Z,14.96
2022-12-22T05:20:10.244Z,13.36
2022-12-22T05:20:44.278Z,13.50
2022-12-22T05:21:21.455Z,14.46
2022-12-22T05:22:01.199Z,13.35
2022-12-22T05:22:35.305Z,13.36
2022-12-22T05:23:08.927Z,12.48
2022-12-22T05:23:50.256Z,12.18
2022-12-22T05:24:24.294Z,12.89
2022-12-22T05:24:57.922Z,13.13
2022-12-22T05:25:39.203Z,13.09
2022-12-22T05:26:14.541Z,12.05
2022-12-22T05:26:48.904Z,12.09
2022-12-22T05:27:29.204Z,11.98
2022-12-22T05:28:03.342Z,12.35
2022-12-22T05:28:37.041Z,13.75
2022-12-22T05:29:17.218Z,13.10
2022-12-22T05:29:51.297Z,13.05
2022-12-22T05:30:26.437Z,12.90
2022-12-22T05:31:17.324Z,14.59
2022-12-22T05:31:51.301Z,14.35
2022-12-22T05:32:25.010Z,15.00
2022-12-22T05:33:06.226Z,14.31
2022-12-22T05:33:40.273Z,13.65
2022-12-22T05:34:13.926Z,13.23
2022-12-22T05:34:55.281Z,12.55
2022-12-22T05:35:29.422Z,14.04
2022-12-22T05:36:03.740Z,14.25
2022-12-22T05:36:44.219Z,14.98
2022-12-22T05:37:18.391Z,15.25
2022-12-22T05:37:52.188Z,15.38
2022-12-22T05:38:33.225Z,14.80
2022-12-22T05:39:07.331Z,14.98
2022-12-22T05:39:42.029Z,15.18
2022-12-22T05:40:22.218Z,13.68
2022-12-22T05:41:03.288Z,14.38
2022-12-22T05:41:37.899Z,14.90
2022-12-22T05:42:18.188Z,14.07
2022-12-22T05:42:52.283Z,13.51
2022-12-22T05:43:25.882Z,14.55
2022-12-22T05:44:07.199Z,14.86
2022-12-22T05:44:41.307Z,13.74
2022-12-22T05:45:20.817Z,13.35
2022-12-22T05:46:02.231Z,14.09
2022-12-22T05:46:36.344Z,14.80
2022-12-22T05:47:09.978Z,14.32
2022-12-22T05:47:53.202Z,13.73
2022-12-22T05:48:31.002Z,13.76
2022-12-22T05:49:09.885Z,14.63
2022-12-22T05:49:50.196Z,14.46
2022-12-22T05:50:28.305Z,14.60
2022-12-22T05:51:01.998Z,15.00
2022-12-22T05:51:42.264Z,13.82
2022-12-22T05:52:16.294Z,14.31
2022-12-22T05:52:50.312Z,14.77
2022-12-22T05:53:30.184Z,14.35
2022-12-22T05:54:04.253Z,14.41
2022-12-22T05:54:37.897Z,14.13
2022-12-22T05:55:20.170Z,14.52
2022-12-22T05:55:54.464Z,15.05
2022-12-22T05:56:28.141Z,15.48
2022-12-22T05:57:09.219Z,15.13
2022-12-22T05:57:43.589Z,15.43
2022-12-22T05:58:18.325Z,16.52
2022-12-22T05:58:59.168Z,16.29
2022-12-22T05:59:33.286Z,15.98
2022-12-22T06:00:10.812Z,16.75
2022-12-22T06:00:51.155Z,16.77
2022-12-22T06:01:25.321Z,16.27
2022-12-22T06:01:58.922Z,16.24
2022-12-22T06:02:40.286Z,15.99
2022-12-22T06:03:14.466Z,16.88
2022-12-22T06:03:50.345Z,18.25
2022-12-22T06:04:32.209Z,16.88
2022-12-22T06:05:06.227Z,16.23
2022-12-22T06:05:40.070Z,15.55
2022-12-22T06:06:21.164Z,16.20
2022-12-22T06:06:55.288Z,16.26
2022-12-22T06:07:29.877Z,16.95
2022-12-22T06:08:11.184Z,17.60
2022-12-22T06:08:45.278Z,17.77
2022-12-22T06:09:18.875Z,18.29
2022-12-22T06:10:00.180Z,17.66
2022-12-22T06:10:34.343Z,17.98
2022-12-22T06:11:08.069Z,17.73
2022-12-22T06:11:49.179Z,18.40
2022-12-22T06:12:23.383Z,17.69
2022-12-22T06:12:56.847Z,17.98
2022-12-22T06:13:38.162Z,18.42
2022-12-22T06:14:12.209Z,18.61
2022-12-22T06:14:45.962Z,18.48
2022-12-22T06:15:26.170Z,18.56
2022-12-22T06:16:00.329Z,20.52
2022-12-22T06:16:33.943Z,19.51
2022-12-22T06:17:15.160Z,17.91
2022-12-22T06:17:49.219Z,17.24
2022-12-22T06:18:23.947Z,16.14
2022-12-22T06:19:04.165Z,15.90
2022-12-22T06:19:38.232Z,15.68
2022-12-22T06:20:13.837Z,15.89
2022-12-22T06:20:57.198Z,16.26
2022-12-22T06:21:32.252Z,15.10
2022-12-22T06:22:06.052Z,15.54
2022-12-22T06:22:47.161Z,15.36
2022-12-22T06:23:22.264Z,15.73
2022-12-22T06:23:56.309Z,16.40
2022-12-22T06:24:36.199Z,16.90
2022-12-22T06:25:17.250Z,16.01
2022-12-22T06:26:00.504Z,16.61
2022-12-22T06:26:40.143Z,17.09
2022-12-22T06:27:14.289Z,17.69
2022-12-22T06:27:48.844Z,18.74
2022-12-22T06:28:30.169Z,18.69
2022-12-22T06:29:04.230Z,17.83
2022-12-22T06:29:44.176Z,17.55
2022-12-22T06:30:30.941Z,17.24
2022-12-22T06:31:13.253Z,17.31
2022-12-22T06:31:53.256Z,17.81
2022-12-22T06:32:35.143Z,17.73
2022-12-22T06:33:16.231Z,18.10
2022-12-22T06:33:50.069Z,19.23
2022-12-22T06:34:31.161Z,17.64
2022-12-22T06:35:12.175Z,18.34
2022-12-22T06:35:48.668Z,18.19
2022-12-22T06:36:38.140Z,17.15
2022-12-22T06:37:11.995Z,17.84
2022-12-22T06:37:59.138Z,17.38
2022-12-22T06:38:33.102Z,16.99
2022-12-22T06:39:21.127Z,17.42
2022-12-22T06:39:54.829Z,17.19
2022-12-22T06:40:35.126Z,16.60
2022-12-22T06:41:09.370Z,16.30
2022-12-22T06:42:02.733Z,16.52
2022-12-22T06:43:08.446Z,15.65
2022-12-22T06:43:43.193Z,15.16
2022-12-22T06:44:16.844Z,15.29
2022-12-22T06:44:59.131Z,16.15
2022-12-22T06:45:33.191Z,15.66
2022-12-22T06:46:13.168Z,14.56
2022-12-22T06:46:53.255Z,15.51
2022-12-22T06:47:33.155Z,21.51
2022-12-22T06:48:15.259Z,57.17
2022-12-22T06:48:55.145Z,59.47
2022-12-22T06:49:35.183Z,60.31
2022-12-22T06:50:16.118Z,61.09
2022-12-22T06:50:57.231Z,52.94
2022-12-22T06:51:37.164Z,41.40
2022-12-22T06:52:18.260Z,62.64
2022-12-22T06:52:59.123Z,45.97
2022-12-22T06:53:39.174Z,42.19
2022-12-22T06:54:24.037Z,46.05
2022-12-22T06:55:06.224Z,36.30
2022-12-22T06:55:47.148Z,39.95
2022-12-22T06:56:27.195Z,37.42
2022-12-22T06:57:08.177Z,36.67
2022-12-22T06:57:48.232Z,32.44
2022-12-22T06:58:29.154Z,35.86
2022-12-22T06:59:10.176Z,30.02
2022-12-22T06:59:57.068Z,52.34
2022-12-22T07:00:38.505Z,53.16
2022-12-22T07:01:20.165Z,31.08
2022-12-22T07:02:55.278Z,34.38
2022-12-22T07:03:35.296Z,49.59
2022-12-22T07:04:16.156Z,61.26
2022-12-22T07:04:56.173Z,55.78
2022-12-22T07:05:38.088Z,37.03
2022-12-22T07:06:21.231Z,33.30
2022-12-22T07:07:01.123Z,22.99
2022-12-22T07:07:42.255Z,22.30
2022-12-22T07:08:22.198Z,23.45
2022-12-22T07:09:02.203Z,25.58
2022-12-22T07:09:42.133Z,22.75
2022-12-22T07:10:43.187Z,23.26
2022-12-22T07:11:24.107Z,22.52
2022-12-22T07:12:04.241Z,18.35
2022-12-22T07:12:45.089Z,18.50
2022-12-22T07:13:34.240Z,18.70
2022-12-22T07:14:08.162Z,18.48
2022-12-22T07:14:56.119Z,18.20
2022-12-22T07:15:30.460Z,20.27
2022-12-22T07:16:21.168Z,20.77
2022-12-22T07:16:54.801Z,21.71
2022-12-22T07:17:42.112Z,23.10
2022-12-22T07:18:15.881Z,21.94
2022-12-22T07:18:57.106Z,21.71
2022-12-22T07:19:31.189Z,23.44
2022-12-22T07:20:05.401Z,24.55
2022-12-22T07:20:45.108Z,23.61
2022-12-22T07:21:21.228Z,22.90
2022-12-22T07:21:55.099Z,23.16
2022-12-22T07:22:35.097Z,22.96
2022-12-22T07:23:09.206Z,21.64
2022-12-22T07:23:43.450Z,22.85
2022-12-22T07:24:29.108Z,21.09
2022-12-22T07:25:03.238Z,20.95
2022-12-22T07:25:37.321Z,21.13
2022-12-22T07:26:18.243Z,20.46
2022-12-22T07:26:52.199Z,19.98
2022-12-22T07:27:26.218Z,20.56
2022-12-22T07:28:07.094Z,20.64
2022-12-22T07:28:42.288Z,18.56
2022-12-22T07:29:17.612Z,17.89
2022-12-22T07:29:57.119Z,18.09
2022-12-22T07:30:31.432Z,18.66
2022-12-22T07:31:06.195Z,18.94
2022-12-22T07:31:47.443Z,19.14
2022-12-22T07:32:21.271Z,19.59
2022-12-22T07:32:54.881Z,18.41
2022-12-22T07:33:36.110Z,17.48
2022-12-22T07:34:10.179Z,16.25
2022-12-22T07:34:43.981Z,16.94
2022-12-22T07:35:25.097Z,17.20
2022-12-22T07:36:19.608Z,17.50
2022-12-22T07:36:54.370Z,18.05
2022-12-22T07:37:34.088Z,16.74
2022-12-22T07:38:08.452Z,18.13
2022-12-22T07:38:46.030Z,18.30
2022-12-22T07:39:27.070Z,18.29
2022-12-22T07:40:01.291Z,17.54
2022-12-22T07:40:44.955Z,17.70
2022-12-22T07:41:47.042Z,18.61
2022-12-22T07:42:46.077Z,19.71
2022-12-22T07:43:27.179Z,19.48
2022-12-22T07:44:08.084Z,19.63
2022-12-22T07:44:49.221Z,19.99
2022-12-22T07:45:30.067Z,20.99
2022-12-22T07:46:13.138Z,20.88
2022-12-22T07:46:47.374Z,22.21
2022-12-22T07:47:21.064Z,21.66
2022-12-22T07:48:29.071Z,21.77
2022-12-22T07:49:35.468Z,22.15
2022-12-22T07:50:25.485Z,19.99
2022-12-22T07:51:10.065Z,20.42
2022-12-22T07:51:53.075Z,19.79
2022-12-22T07:52:26.891Z,19.64
2022-12-22T07:53:17.069Z,20.36
2022-12-22T07:53:50.953Z,20.34
2022-12-22T07:54:42.264Z,20.01
2022-12-22T07:55:16.896Z,18.71
2022-12-22T07:56:04.065Z,18.80
2022-12-22T07:56:38.697Z,17.77
2022-12-22T07:57:19.105Z,17.83
2022-12-22T07:57:53.114Z,17.98
2022-12-22T07:58:26.800Z,17.67
2022-12-22T07:59:08.065Z,17.67
2022-12-22T07:59:42.158Z,17.33
2022-12-22T08:00:17.200Z,16.31
2022-12-22T08:00:57.065Z,17.41
2022-12-22T08:01:31.149Z,18.34
2022-12-22T08:02:04.940Z,17.40
2022-12-22T08:02:46.164Z,19.75
2022-12-22T08:03:20.279Z,21.89
2022-12-22T08:03:53.926Z,22.49
2022-12-22T08:04:34.083Z,25.63
2022-12-22T08:05:08.212Z,27.67
2022-12-22T08:05:41.807Z,31.36
2022-12-22T08:06:22.056Z,29.45
2022-12-22T08:06:56.159Z,27.67
2022-12-22T08:07:29.909Z,26.56
2022-12-22T08:08:11.085Z,26.04
2022-12-22T08:08:45.187Z,24.21
2022-12-22T08:09:21.718Z,24.26
2022-12-22T08:10:02.125Z,23.90
2022-12-22T08:10:36.147Z,21.59
2022-12-22T08:11:09.914Z,19.77
2022-12-22T08:11:51.042Z,20.36
2022-12-22T08:12:25.164Z,21.00
2022-12-22T08:12:58.943Z,20.52
2022-12-22T08:13:41.071Z,19.39
2022-12-22T08:14:15.307Z,18.44
2022-12-22T08:14:49.807Z,19.13
2022-12-22T08:15:30.066Z,19.39
2022-12-22T08:16:13.271Z,18.06
2022-12-22T08:16:47.811Z,17.59
2022-12-22T08:17:28.038Z,18.33
2022-12-22T08:18:03.095Z,18.96
2022-12-22T08:18:37.593Z,19.21
2022-12-22T08:19:18.076Z,18.71
2022-12-22T08:19:52.107Z,17.76
2022-12-22T08:20:25.945Z,16.15
2022-12-22T08:21:07.020Z,16.58
2022-12-22T08:21:44.221Z,15.51
2022-12-22T08:22:24.495Z,16.91
2022-12-22T08:23:05.020Z,17.75
2022-12-22T08:23:39.156Z,17.29
2022-12-22T08:24:12.800Z,17.55
2022-12-22T08:24:53.026Z,16.30
2022-12-22T08:25:27.140Z,16.31
2022-12-22T08:26:25.282Z,18.27
2022-12-22T08:27:10.031Z,17.84
2022-12-22T08:27:51.162Z,18.49
2022-12-22T08:28:24.713Z,17.79
2022-12-22T08:29:41.032Z,17.36
2022-12-22T08:30:23.032Z,19.17
2022-12-22T08:30:56.723Z,19.55
2022-12-22T08:31:45.146Z,19.54
2022-12-22T08:32:18.873Z,20.19
2022-12-22T08:33:06.040Z,19.21
2022-12-22T08:33:39.832Z,18.60
2022-12-22T08:34:29.019Z,19.55
2022-12-22T08:35:07.033Z,19.29
2022-12-22T08:35:48.061Z,18.54
2022-12-22T08:36:22.079Z,19.24
2022-12-22T08:36:58.473Z,18.85
2022-12-22T08:37:42.024Z,20.79
2022-12-22T08:38:18.180Z,20.75
2022-12-22T08:38:52.073Z,20.92
2022-12-22T08:39:35.029Z,18.05
2022-12-22T08:40:12.099Z,18.96
2022-12-22T08:40:45.905Z,21.15
2022-12-22T08:41:46.054Z,21.00
2022-12-22T08:42:23.099Z,20.20
2022-12-22T08:43:08.419Z,19.42
2022-12-22T08:43:48.984Z,17.88
2022-12-22T08:44:30.270Z,17.29
2022-12-22T08:45:05.445Z,16.36
2022-12-22T08:45:45.015Z,17.35
2022-12-22T08:46:19.142Z,16.80
2022-12-22T08:47:01.086Z,16.63
2022-12-22T08:47:42.702Z,17.04
2022-12-22T08:48:23.007Z,16.94
2022-12-22T08:49:04.054Z,15.45
2022-12-22T08:49:44.048Z,16.49
2022-12-22T08:50:24.074Z,17.65
2022-12-22T08:51:04.006Z,18.56
2022-12-22T08:51:44.076Z,21.02
2022-12-22T08:52:24.057Z,21.25
2022-12-22T08:53:45.283Z,19.76
2022-12-22T08:54:15.989Z,18.45
2022-12-22T08:54:56.074Z,19.24
2022-12-22T08:55:36.017Z,19.59
2022-12-22T08:56:16.079Z,22.60
2022-12-22T08:56:55.985Z,24.20
2022-12-22T08:57:43.063Z,20.30
2022-12-22T08:58:16.699Z,17.69
2022-12-22T08:59:04.000Z,16.45
2022-12-22T08:59:37.731Z,17.04
2022-12-22T09:00:27.015Z,16.01
2022-12-22T09:01:00.731Z,15.95
2022-12-22T09:01:54.030Z,15.52
2022-12-22T09:02:27.759Z,16.88
2022-12-22T09:03:09.117Z,15.54
2022-12-22T09:03:43.025Z,16.59
2022-12-22T09:04:19.413Z,18.35
2022-12-22T09:04:58.992Z,18.90
2022-12-22T09:05:33.064Z,19.04
2022-12-22T09:06:07.050Z,17.02
2022-12-22T09:06:47.989Z,16.16
2022-12-22T09:07:22.097Z,14.77
2022-12-22T09:07:56.752Z,16.05
2022-12-22T09:08:36.988Z,16.60
2022-12-22T09:09:14.146Z,17.05
2022-12-22T09:09:47.770Z,16.31
2022-12-22T09:10:27.976Z,17.26
2022-12-22T09:11:02.067Z,18.13
2022-12-22T09:11:36.035Z,17.80
2022-12-22T09:12:17.002Z,16.85
2022-12-22T09:12:51.290Z,17.31
2022-12-22T09:13:25.682Z,18.16
2022-12-22T09:14:09.003Z,19.75
2022-12-22T09:14:43.175Z,19.55
2022-12-22T09:15:18.278Z,20.26
2022-12-22T09:15:58.011Z,18.89
2022-12-22T09:16:34.153Z,18.60
2022-12-22T09:17:08.702Z,18.84
2022-12-22T09:17:49.993Z,17.99
2022-12-22T09:18:24.038Z,18.58
2022-12-22T09:18:57.785Z,18.66
2022-12-22T09:19:37.999Z,18.21
2022-12-22T09:20:14.168Z,18.85
2022-12-22T09:20:48.066Z,16.88
2022-12-22T09:21:29.959Z,16.76
2022-12-22T09:22:04.045Z,17.05
2022-12-22T09:22:37.814Z,16.61
2022-12-22T09:23:17.957Z,15.81
2022-12-22T09:23:52.058Z,16.20
2022-12-22T09:24:25.671Z,17.10
2022-12-22T09:25:05.981Z,19.15
2022-12-22T09:25:41.069Z,19.61
2022-12-22T09:26:19.159Z,17.84
2022-12-22T09:26:59.967Z,16.40
2022-12-22T09:27:34.061Z,15.79
2022-12-22T09:28:08.010Z,15.99
2022-12-22T09:28:50.795Z,16.59
2022-12-22T09:29:25.067Z,16.98
2022-12-22T09:29:58.672Z,17.46
2022-12-22T09:30:39.004Z,17.29
2022-12-22T09:31:14.148Z,17.70
2022-12-22T09:31:48.758Z,16.69
2022-12-22T09:32:29.961Z,17.29
2022-12-22T09:33:04.058Z,17.08
2022-12-22T09:33:37.851Z,16.40
2022-12-22T09:34:18.993Z,17.33
2022-12-22T09:34:53.039Z,16.41
2022-12-22T09:35:26.801Z,16.85
2022-12-22T09:36:06.972Z,16.86
2022-12-22T09:36:41.015Z,16.48
2022-12-22T09:37:16.052Z,17.21
2022-12-22T09:37:55.984Z,19.14
2022-12-22T09:38:34.045Z,18.76
2022-12-22T09:39:10.861Z,17.94
2022-12-22T09:39:52.975Z,16.85
2022-12-22T09:40:27.106Z,17.61
2022-12-22T09:41:38.958Z,18.35
2022-12-22T09:42:27.107Z,18.76
2022-12-22T09:43:07.943Z,18.81
2022-12-22T09:43:48.058Z,17.99
2022-12-22T09:44:50.963Z,17.17
2022-12-22T09:45:33.837Z,18.09
2022-12-22T09:46:41.961Z,17.19
2022-12-22T09:47:42.034Z,17.23
2022-12-22T09:48:28.926Z,17.75
2022-12-22T09:49:03.004Z,16.49
2022-12-22T09:49:49.969Z,17.02
2022-12-22T09:50:24.091Z,17.39
2022-12-22T09:51:11.954Z,17.56